Time;durP1;ratioP1;P1;durP2;ratioP2;P2;SDS_P1;SDS_P2;PMS_P1;PMS_P2;Temp;Humidity;BMP_temperature;BMP_pressure;BME280_temperature;BME280_humidity;BME280_pressure;Samples;Min_cycle;Max_cycle;Signal;HPM_P1;HPM_P2
2021/12/14 00:02:26;;;;;;;13.20;12.30;;;;;;;-0.12;88.24;93098.78;5072079;28;20253;-76
2021/12/14 00:04:51;;;;;;;13.47;12.40;;;;;;;-0.14;89.05;93087.94;5071739;28;20185;-76
2021/12/14 00:07:19;;;;;;;13.50;12.50;;;;;;;-0.08;87.96;93105.09;5071380;28;20218;-76
2021/12/14 00:09:45;;;;;;;13.67;12.87;;;;;;;-0.15;87.91;93099.19;5070709;28;20185;-76
2021/12/14 00:12:55;;;;;;;12.80;12.00;;;;;;;-0.10;87.49;93099.38;5069917;28;20300;-76
2021/12/14 00:15:21;;;;;;;12.47;11.70;;;;;;;-0.20;87.92;93101.56;5071042;28;20229;-75
2021/12/14 00:17:51;;;;;;;13.20;12.40;;;;;;;-0.39;87.75;93079.34;5070762;28;20225;-77
2021/12/14 00:20:24;;;;;;;12.23;11.53;;;;;;;-0.39;88.15;93084.47;5070069;28;20190;-76
2021/12/14 00:25:22;;;;;;;13.87;12.97;;;;;;;-0.18;88.54;93097.03;5072092;28;20193;-76
2021/12/14 00:27:47;;;;;;;14.20;13.20;;;;;;;-0.05;88.41;93109.81;5069916;28;20229;-76
2021/12/14 00:30:13;;;;;;;13.20;12.27;;;;;;;-0.28;88.49;93110.25;5070693;28;20193;-76
2021/12/14 00:32:39;;;;;;;11.60;10.80;;;;;;;-0.08;87.68;93110.22;5070027;28;20251;-76
2021/12/14 00:35:13;;;;;;;13.07;12.17;;;;;;;-0.20;87.81;93106.69;5070826;28;20189;-76
2021/12/14 00:37:42;;;;;;;12.83;11.93;;;;;;;-0.42;87.73;93105.38;5069477;28;20217;-77
2021/12/14 00:40:30;;;;;;;13.23;12.33;;;;;;;-0.36;88.57;93117.41;5070583;28;20186;-76
2021/12/14 00:42:57;;;;;;;13.20;12.40;;;;;;;-0.40;88.93;93122.13;5069888;28;20221;-76
2021/12/14 00:45:25;;;;;;;12.17;11.33;;;;;;;-0.39;88.83;93097.28;5069475;28;20182;-76
2021/12/14 00:47:52;;;;;;;14.23;13.23;;;;;;;-0.50;88.95;93069.69;5068243;28;20241;-77
2021/12/14 00:50:20;;;;;;;14.57;13.63;;;;;;;0.01;89.08;93116.72;5069860;28;20190;-76
2021/12/14 00:52:47;;;;;;;14.13;13.03;;;;;;;-0.05;87.72;93099.56;5070966;28;20233;-77
2021/12/14 00:55:17;;;;;;;14.60;13.60;;;;;;;-0.02;87.40;93120.44;5069397;28;20209;-76
2021/12/14 00:57:43;;;;;;;12.73;11.87;;;;;;;-0.32;88.20;93098.03;5069944;28;20229;-76
2021/12/14 01:00:14;;;;;;;13.17;12.30;;;;;;;-0.25;87.30;93088.56;5072183;28;20205;-76
2021/12/14 01:02:40;;;;;;;12.80;12.00;;;;;;;-0.20;87.66;93114.38;5076204;28;20231;-76
2021/12/14 01:05:21;;;;;;;13.43;12.63;;;;;;;-0.42;87.63;93067.69;5090563;28;20200;-77
2021/12/14 01:07:48;;;;;;;13.63;12.73;;;;;;;-0.07;88.37;93116.91;5091227;28;20236;-76
2021/12/14 01:10:26;;;;;;;14.40;13.40;;;;;;;-0.14;87.61;93126.44;5090828;28;20189;-77
2021/12/14 01:12:55;;;;;;;13.43;12.50;;;;;;;-0.35;88.00;93121.53;5089742;28;20216;-77
2021/12/14 01:15:42;;;;;;;13.60;12.50;;;;;;;-0.27;88.17;93111.06;5091803;28;20231;-76
2021/12/14 01:18:29;;;;;;;11.73;10.93;;;;;;;-0.31;88.23;93120.13;5088847;28;20216;-77
2021/12/14 01:21:02;;;;;;;13.17;12.37;;;;;;;-0.50;88.64;93096.09;5090208;28;20192;-77
2021/12/14 01:23:33;;;;;;;13.27;12.47;;;;;;;-0.63;88.47;93059.44;5089501;28;20233;-79
2021/12/14 01:26:06;;;;;;;12.03;11.33;;;;;;;-0.29;88.19;93105.34;5089877;28;20212;-78
2021/12/14 01:28:33;;;;;;;12.87;12.07;;;;;;;-0.18;87.99;93114.97;5089662;28;20209;-78
2021/12/14 01:31:10;;;;;;;13.70;12.83;;;;;;;-0.42;88.55;93093.31;5089411;28;20211;-78
2021/12/14 01:33:41;;;;;;;12.83;12.07;;;;;;;-0.27;88.40;93122.13;5074027;28;21589;-80
2021/12/14 01:36:20;;;;;;;13.10;12.07;;;;;;;-0.38;88.38;93093.72;5069836;28;20213;-78
2021/12/14 01:38:58;;;;;;;14.13;13.03;;;;;;;-0.34;88.67;93117.97;5069409;28;20363;-78
2021/12/14 01:41:23;;;;;;;12.70;11.87;;;;;;;-0.33;88.40;93112.63;5072796;28;20195;-78
2021/12/14 01:43:55;;;;;;;11.70;10.90;;;;;;;-0.32;89.62;93108.31;5086508;28;20283;-79
2021/12/14 01:46:32;;;;;;;12.90;12.00;;;;;;;-0.29;89.43;93107.91;5089356;28;20246;-78
2021/12/14 01:49:02;;;;;;;13.53;12.67;;;;;;;-0.38;88.84;93096.28;5088758;28;20220;-79
2021/12/14 01:51:28;;;;;;;13.83;12.83;;;;;;;-0.43;88.79;93078.13;5090139;28;20193;-79
2021/12/14 01:53:55;;;;;;;12.87;12.07;;;;;;;-0.25;88.70;93109.84;5088057;28;20240;-79
2021/12/14 01:56:24;;;;;;;14.10;13.13;;;;;;;-0.15;88.75;93101.75;5088600;28;20188;-79
2021/12/14 01:58:59;;;;;;;14.83;13.73;;;;;;;-0.20;88.86;93099.78;5070955;28;20882;-78
2021/12/14 02:01:37;;;;;;;13.70;12.80;;;;;;;-0.31;87.81;93079.88;5101638;28;20197;-78
2021/12/14 02:04:10;;;;;;;13.73;12.93;;;;;;;-0.19;87.86;93114.19;5065948;28;20232;-78
2021/12/14 02:06:36;;;;;;;14.07;13.20;;;;;;;-0.17;88.44;93111.41;5070074;28;20225;-78
2021/12/14 02:09:10;;;;;;;13.47;12.57;;;;;;;-0.12;88.10;93096.22;5068385;28;20253;-79
2021/12/14 02:11:42;;;;;;;13.40;12.57;;;;;;;-0.05;88.32;93109.81;5068030;28;21740;-79
2021/12/14 02:14:08;;;;;;;12.70;11.80;;;;;;;-0.13;88.29;93113.41;5089719;28;20247;-79
2021/12/14 02:16:35;;;;;;;12.50;11.60;;;;;;;-0.20;90.25;93106.69;5089620;28;20230;-79
2021/12/14 02:19:05;;;;;;;14.33;13.43;;;;;;;-0.35;88.83;93109.50;5067751;28;20229;-79
2021/12/14 02:21:31;;;;;;;13.67;12.80;;;;;;;-0.27;88.89;93116.97;5069851;28;20254;-79
2021/12/14 02:23:59;;;;;;;13.77;12.87;;;;;;;-0.33;89.38;93104.16;5069265;28;20224;-79
2021/12/14 02:26:30;;;;;;;13.53;12.40;;;;;;;-0.21;88.68;93084.59;5070198;28;20209;-78
2021/12/14 02:29:03;;;;;;;14.37;13.43;;;;;;;0.13;88.66;93107.38;5087702;28;20292;-78
2021/12/14 02:31:29;;;;;;;13.33;12.50;;;;;;;-0.01;87.72;93103.28;5089971;28;20180;-78
2021/12/14 02:33:57;;;;;;;13.70;12.80;;;;;;;-0.01;87.66;93087.88;5088516;28;20311;-79
2021/12/14 02:36:44;;;;;;;13.50;12.70;;;;;;;-0.26;87.48;93051.06;5089828;28;20208;-78
2021/12/14 02:39:24;;;;;;;12.20;11.50;;;;;;;-0.05;86.97;93094.44;5090295;28;20196;-79
2021/12/14 02:41:56;;;;;;;13.77;12.87;;;;;;;0.07;87.29;93118.47;5089953;28;20268;-79
2021/12/14 02:44:23;;;;;;;13.57;12.63;;;;;;;-0.03;88.01;93116.31;5089565;28;20235;-80
2021/12/14 02:46:53;;;;;;;14.67;13.67;;;;;;;-0.07;88.51;93112.59;5088324;28;20220;-79
2021/12/14 02:49:24;;;;;;;13.80;12.90;;;;;;;0.02;88.21;93105.44;5069764;28;20181;-79
2021/12/14 02:51:56;;;;;;;13.77;12.87;;;;;;;0.13;87.47;93117.63;5069917;28;20193;-79
2021/12/14 02:54:29;;;;;;;12.30;11.60;;;;;;;0.02;89.10;93120.84;5066140;28;20252;-79
2021/12/14 02:57:21;;;;;;;13.37;12.30;;;;;;;0.04;87.27;93113.72;5068059;28;20204;-79
2021/12/14 02:59:48;;;;;;;13.73;12.83;;;;;;;-0.43;89.52;93088.41;5060568;28;20217;-79
2021/12/14 03:02:21;;;;;;;13.47;12.57;;;;;;;-0.03;88.63;93120.66;5068472;28;20221;-78
2021/12/14 03:04:50;;;;;;;14.00;13.17;;;;;;;-0.30;88.80;93101.19;5100412;28;20204;-77
2021/12/14 03:07:22;;;;;;;13.83;12.83;;;;;;;-0.16;89.15;93123.28;5066786;28;20718;-79
2021/12/14 03:12:35;;;;;;;14.43;13.43;;;;;;;-0.17;89.62;93131.94;5073315;28;20220;-79
2021/12/14 03:15:10;;;;;;;14.30;13.17;;;;;;;0.00;89.26;93127.97;5089806;28;20307;-79
2021/12/14 03:17:38;;;;;;;14.67;13.67;;;;;;;-0.01;88.96;93131.50;5124757;28;20243;-79
2021/12/14 03:20:10;;;;;;;14.13;13.13;;;;;;;0.03;88.56;93128.34;5092947;28;20196;-79
2021/12/14 03:22:57;;;;;;;14.60;13.60;;;;;;;0.05;88.40;93115.28;5115265;27;20251;-79
2021/12/14 03:25:23;;;;;;;14.40;13.50;;;;;;;-0.12;89.77;93129.56;5073040;28;20201;-79
2021/12/14 03:27:51;;;;;;;16.40;15.20;;;;;;;-0.17;89.23;93109.66;5074390;28;20229;-79
2021/12/14 03:30:28;;;;;;;16.13;15.03;;;;;;;-0.35;90.30;93098.44;5073393;28;20193;-78
2021/12/14 03:32:57;;;;;;;14.20;13.20;;;;;;;-0.31;88.97;93123.50;5083205;28;20306;-79
2021/12/14 03:35:43;;;;;;;14.37;13.30;;;;;;;-0.42;90.08;93118.19;5092194;28;20204;-78
2021/12/14 03:38:14;;;;;;;14.97;13.93;;;;;;;-0.34;90.71;93120.53;5092737;28;20227;-78
2021/12/14 03:40:40;;;;;;;13.37;12.47;;;;;;;-0.37;90.59;93126.84;5092683;28;21183;-78
2021/12/14 03:43:06;;;;;;;14.43;13.27;;;;;;;-0.43;91.86;93132.78;5092598;28;20255;-78
2021/12/14 03:45:32;;;;;;;15.00;13.80;;;;;;;-0.43;91.71;93140.47;5092887;28;20192;-79
2021/12/14 03:47:59;;;;;;;14.93;13.80;;;;;;;-0.58;93.66;93139.13;5092856;28;20310;-79
2021/12/14 03:50:29;;;;;;;13.73;12.73;;;;;;;-0.54;92.33;93114.66;5092583;28;20188;-78
2021/12/14 03:52:54;;;;;;;13.73;12.83;;;;;;;-0.56;92.44;93143.03;5091881;28;20239;-79
2021/12/14 03:55:29;;;;;;;13.47;12.47;;;;;;;-0.61;92.52;93108.75;5092750;28;20189;-79
2021/12/14 03:57:54;;;;;;;13.97;13.07;;;;;;;-0.72;92.51;93097.34;5091803;28;20326;-78
2021/12/14 04:00:32;;;;;;;14.40;13.43;;;;;;;-0.39;94.15;93140.88;5092034;28;21075;-79
2021/12/14 04:03:03;;;;;;;12.37;11.57;;;;;;;-0.51;93.55;93119.38;5091590;28;20246;-79
2021/12/14 04:05:29;;;;;;;14.30;13.33;;;;;;;-0.38;92.11;93132.19;5093140;28;20188;-79
2021/12/14 04:07:55;;;;;;;13.07;12.20;;;;;;;-0.58;92.32;93128.88;5090945;28;20253;-78
2021/12/14 04:10:25;;;;;;;14.17;13.13;;;;;;;-0.53;92.57;93134.94;5092153;28;20207;-78
2021/12/14 04:12:52;;;;;;;14.13;13.13;;;;;;;-0.53;92.79;93141.88;5090527;28;20243;-79
2021/12/14 04:15:18;;;;;;;15.27;14.07;;;;;;;-0.55;93.03;93151.53;5093023;28;20252;-79
2021/12/14 04:17:44;;;;;;;15.63;14.43;;;;;;;-0.65;92.93;93130.63;5082678;28;20237;-79
2021/12/14 04:20:15;;;;;;;15.03;13.93;;;;;;;-0.43;92.92;93149.94;5072334;28;20268;-79
2021/12/14 04:22:43;;;;;;;14.60;13.50;;;;;;;-0.54;92.97;93153.09;5080430;28;20236;-78
2021/12/14 04:25:09;;;;;;;16.27;14.77;;;;;;;-0.49;93.31;93150.75;5090079;28;20189;-78
2021/12/14 04:27:36;;;;;;;14.93;13.77;;;;;;;-0.38;92.83;93155.25;5084813;28;20240;-79
2021/12/14 04:30:11;;;;;;;14.30;13.30;;;;;;;-0.46;92.27;93163.16;5070449;28;20212;-78
2021/12/14 04:32:36;;;;;;;15.50;14.40;;;;;;;-0.40;93.49;93162.38;5071477;28;21705;-80
2021/12/14 04:35:03;;;;;;;13.87;12.97;;;;;;;-0.30;93.73;93155.88;5071038;28;20205;-80
2021/12/14 04:37:30;;;;;;;13.60;12.70;;;;;;;-0.55;93.11;93169.47;5071431;28;20243;-80
2021/12/14 04:40:15;;;;;;;13.87;12.97;;;;;;;-0.30;94.25;93163.56;5071673;28;20205;-80
2021/12/14 04:53:51;;;;;;;14.33;13.33;;;;;;;-0.60;93.03;93152.13;5069626;28;20232;-75
2021/12/14 04:56:22;;;;;;;13.50;12.60;;;;;;;-0.44;94.11;93176.59;5069272;28;20193;-74
2021/12/14 04:59:20;;;;;;;15.30;14.27;;;;;;;-0.55;93.33;93172.03;5070545;28;20240;-73
2021/12/14 05:01:47;;;;;;;13.83;12.83;;;;;;;-0.56;93.30;93148.19;5068596;28;20255;-74
2021/12/14 05:04:17;;;;;;;14.50;13.40;;;;;;;-0.35;93.12;93160.00;5068688;28;20201;-77
2021/12/14 05:06:53;;;;;;;15.40;14.20;;;;;;;-0.29;92.75;93167.69;5071134;28;20231;-79
2021/12/14 05:09:28;;;;;;;14.60;13.50;;;;;;;-0.35;92.63;93175.38;5071552;28;20181;-76
2021/12/14 05:12:15;;;;;;;15.03;13.93;;;;;;;-0.31;92.94;93181.69;5072350;28;20264;-80
2021/12/14 05:14:42;;;;;;;14.57;13.47;;;;;;;-0.42;92.70;93179.75;5090497;28;20247;-77
2021/12/14 05:17:11;;;;;;;15.07;13.93;;;;;;;-0.39;92.60;93156.25;5088659;28;20236;-77
2021/12/14 05:19:40;;;;;;;15.00;13.90;;;;;;;-0.49;92.30;93179.75;5089677;28;20181;-77
2021/12/14 05:22:09;;;;;;;15.40;14.30;;;;;;;-0.46;93.17;93178.53;5090050;28;20270;-77
2021/12/14 05:24:38;;;;;;;15.23;14.13;;;;;;;-0.46;93.46;93181.09;5089392;28;20193;-75
2021/12/14 05:27:06;;;;;;;15.00;13.80;;;;;;;-0.36;92.80;93179.72;5088576;28;20253;-78
2021/12/14 05:29:33;;;;;;;15.80;14.57;;;;;;;-0.46;92.81;93183.66;5089474;28;20189;-77
2021/12/14 05:32:03;;;;;;;16.07;14.77;;;;;;;-0.39;92.45;93176.78;5085257;28;20728;-76
2021/12/14 05:34:29;;;;;;;16.57;15.03;;;;;;;-0.43;92.53;93183.28;5067190;28;20186;-77
2021/12/14 05:36:56;;;;;;;17.23;15.83;;;;;;;-0.57;92.33;93154.28;5067037;28;20190;-82
2021/12/14 05:44:39;;;;;;;14.83;13.73;;;;;;;-0.21;91.83;93194.91;5087206;28;20218;-86
2021/12/14 05:47:11;;;;;;;16.30;15.03;;;;;;;-0.43;92.18;93193.53;5084557;28;20251;-85
2021/12/14 05:49:40;;;;;;;15.90;14.47;;;;;;;-0.38;93.05;93196.31;5087314;28;20222;-79
2021/12/14 05:52:24;;;;;;;14.57;13.47;;;;;;;-0.23;92.78;93191.75;5083306;28;20252;-83
2021/12/14 05:54:52;;;;;;;15.60;14.47;;;;;;;-0.32;91.79;93195.50;5067605;28;20201;-85
2021/12/14 05:57:22;;;;;;;15.67;14.37;;;;;;;-0.20;92.40;93199.03;5065905;28;20221;-79
2021/12/14 05:59:48;;;;;;;17.53;16.07;;;;;;;-0.14;92.12;93203.41;5068741;28;20223;-73
2021/12/14 06:02:14;;;;;;;15.90;14.50;;;;;;;-0.14;91.14;93195.69;5067977;28;20332;-78
2021/12/14 06:04:49;;;;;;;17.10;15.33;;;;;;;-0.37;91.87;93174.78;5069281;28;20193;-77
2021/12/14 06:07:17;;;;;;;14.70;13.40;;;;;;;-0.39;91.44;93205.00;5066854;28;20241;-78
2021/12/14 06:09:46;;;;;;;15.73;14.43;;;;;;;-0.27;91.43;93223.91;5067814;28;20243;-80
2021/12/14 06:12:20;;;;;;;17.47;15.97;;;;;;;-0.30;91.39;93216.63;5064280;28;20245;-81
2021/12/14 06:14:54;;;;;;;16.70;15.37;;;;;;;-0.10;91.10;93214.81;5064020;28;20225;-79
2021/12/14 06:17:30;;;;;;;16.53;15.07;;;;;;;-0.12;94.64;93216.78;5069726;28;20227;-82
2021/12/14 06:19:59;;;;;;;16.03;14.73;;;;;;;-0.18;93.23;93207.34;5088019;28;20184;-80
2021/12/14 06:22:25;;;;;;;17.03;15.63;;;;;;;-0.33;91.91;93219.59;5086863;28;20299;-83
2021/12/14 06:25:00;;;;;;;20.13;18.27;;;;;;;-0.10;92.66;93204.56;5088700;28;20193;-80
2021/12/14 06:27:29;;;;;;;16.40;15.10;;;;;;;0.09;90.87;93220.91;5087432;28;20228;-79
2021/12/14 06:30:20;;;;;;;16.13;14.83;;;;;;;0.00;91.98;93231.38;5089661;28;20200;-80
2021/12/14 06:33:04;;;;;;;16.73;15.43;;;;;;;-0.16;90.93;93226.66;5087125;28;20231;-79
2021/12/14 06:35:51;;;;;;;18.03;16.43;;;;;;;-0.21;90.85;93233.38;5087531;28;20255;-79
2021/12/14 06:38:31;;;;;;;18.67;16.97;;;;;;;0.02;91.74;93236.31;5086272;28;20217;-80
2021/12/14 06:41:00;;;;;;;18.87;17.27;;;;;;;0.01;90.55;93237.31;5088688;28;20184;-80
2021/12/14 06:43:30;;;;;;;21.27;19.17;;;;;;;0.28;91.29;93238.06;5072485;28;20647;-80
2021/12/14 06:45:59;;;;;;;18.47;16.67;;;;;;;0.25;90.16;93241.81;5067697;28;20193;-80
2021/12/14 06:48:31;;;;;;;19.30;17.60;;;;;;;0.37;90.03;93254.81;5080166;28;20216;-84
2021/12/14 06:51:12;;;;;;;20.30;18.40;;;;;;;0.52;89.48;93240.75;5087359;28;20265;-93
2021/12/14 06:53:39;;;;;;;21.77;18.97;;;;;;;0.16;90.69;93250.72;5071465;28;20252;-82
2021/12/14 06:56:09;;;;;;;20.93;18.93;;;;;;;0.29;90.34;93250.69;5067328;28;20177;-82
2021/12/14 06:59:00;;;;;;;20.40;18.13;;;;;;;0.34;90.43;93257.78;5066483;28;20224;-80
2021/12/14 07:01:33;;;;;;;18.67;16.83;;;;;;;0.37;90.47;93249.69;5057287;28;20216;-89
2021/12/14 07:04:03;;;;;;;17.43;16.03;;;;;;;0.27;89.83;93265.50;5068306;28;20221;-82
2021/12/14 07:06:51;;;;;;;16.90;15.47;;;;;;;-0.04;91.94;93265.34;5068291;28;20209;-77
2021/12/14 07:09:21;;;;;;;18.77;16.37;;;;;;;0.10;91.77;93259.22;5067978;28;20230;-80
2021/12/14 07:11:58;;;;;;;19.40;17.67;;;;;;;0.07;91.47;93254.47;5065227;28;20284;-78
2021/12/14 07:14:26;;;;;;;18.60;16.80;;;;;;;0.29;90.22;93260.97;5086981;28;20224;-80
2021/12/14 07:16:52;;;;;;;18.13;16.47;;;;;;;0.16;92.05;93250.72;5085136;28;20184;-80
2021/12/14 07:19:37;;;;;;;31.13;25.43;;;;;;;0.09;92.74;93233.75;5120309;28;20477;-79
2021/12/14 07:22:03;;;;;;;23.67;20.90;;;;;;;0.37;90.85;93273.59;5087389;28;20953;-77
2021/12/14 07:24:34;;;;;;;24.33;21.77;;;;;;;-0.04;91.35;93224.28;5088414;28;20223;-80
2021/12/14 07:27:18;;;;;;;22.43;20.17;;;;;;;0.41;93.09;93274.75;5086065;28;20220;-79
2021/12/14 07:29:43;;;;;;;25.70;21.60;;;;;;;0.41;89.80;93254.22;5087921;28;20199;-80
2021/12/14 07:32:09;;;;;;;22.00;19.87;;;;;;;0.32;89.88;93275.97;5119541;28;20220;-80
2021/12/14 07:34:34;;;;;;;20.57;18.70;;;;;;;0.06;91.88;93268.31;5088870;28;20239;-81
2021/12/14 07:37:00;;;;;;;20.83;18.63;;;;;;;0.12;91.50;93257.25;5088160;28;20806;-85
2021/12/14 07:39:26;;;;;;;27.93;22.77;;;;;;;0.52;90.68;93287.00;5088678;28;20193;-79
2021/12/14 07:41:58;;;;;;;19.93;18.20;;;;;;;0.30;89.90;93287.41;5087154;28;20260;-84
2021/12/14 07:44:34;;;;;;;23.23;20.13;;;;;;;0.48;90.37;93288.41;5089076;28;20185;-84
2021/12/14 07:47:19;;;;;;;27.30;22.67;;;;;;;0.42;89.93;93284.03;5084645;28;20216;-83
2021/12/14 07:49:54;;;;;;;27.43;24.43;;;;;;;0.44;89.92;93291.53;5088013;28;20219;-79
2021/12/14 07:52:23;;;;;;;24.17;21.73;;;;;;;0.41;89.33;93290.16;5085713;28;20220;-81
2021/12/14 07:54:55;;;;;;;21.37;19.27;;;;;;;0.38;89.16;93270.03;5087581;28;20221;-81
2021/12/14 07:57:28;;;;;;;20.97;18.93;;;;;;;0.22;90.54;93283.28;5086435;28;20233;-80
2021/12/14 07:59:58;;;;;;;19.43;17.63;;;;;;;0.50;90.22;93298.47;5087706;28;20197;-81
2021/12/14 08:02:30;;;;;;;20.63;18.63;;;;;;;0.63;89.91;93299.22;5088208;28;20232;-81
2021/12/14 08:05:05;;;;;;;20.83;18.87;;;;;;;0.48;88.41;93303.81;5092638;28;20193;-82
2021/12/14 08:07:41;;;;;;;23.93;21.43;;;;;;;0.46;89.35;93303.22;5084016;28;20239;-82
2021/12/14 08:10:26;;;;;;;20.93;19.03;;;;;;;0.69;89.41;93311.25;5072004;28;20205;-79
2021/12/14 08:12:58;;;;;;;17.27;15.77;;;;;;;0.61;87.56;93316.59;5071551;28;20225;-80
2021/12/14 08:15:33;;;;;;;20.20;18.40;;;;;;;0.40;89.17;93304.00;5070355;28;20263;-78
2021/12/14 08:18:19;;;;;;;23.10;20.90;;;;;;;0.55;88.58;93312.28;5076856;28;20307;-78
2021/12/14 08:20:59;;;;;;;21.57;19.50;;;;;;;0.53;90.21;93319.38;5071639;28;20189;-78
2021/12/14 08:23:32;;;;;;;53.93;35.47;;;;;;;0.81;88.78;93321.72;5085220;28;20228;-77
2021/12/14 08:26:07;;;;;;;29.57;24.20;;;;;;;0.15;89.72;93302.25;5091737;28;20295;-77
2021/12/14 08:28:55;;;;;;;20.80;18.60;;;;;;;0.08;92.51;93291.22;5073663;28;20228;-78
2021/12/14 08:31:24;;;;;;;22.10;17.33;;;;;;;0.42;90.34;93322.56;5069270;28;20200;-78
2021/12/14 08:33:58;;;;;;;23.37;20.30;;;;;;;0.69;88.74;93318.97;5070208;28;20221;-78
2021/12/14 08:36:25;;;;;;;20.03;18.00;;;;;;;0.86;87.82;93314.16;5068072;28;20200;-78
2021/12/14 08:39:05;;;;;;;17.87;16.10;;;;;;;0.31;89.54;93276.16;5068932;28;20225;-77
2021/12/14 08:41:31;;;;;;;19.87;17.97;;;;;;;0.80;90.62;93305.50;5086224;28;20189;-78
2021/12/14 08:44:08;;;;;;;21.80;19.60;;;;;;;0.87;89.33;93311.38;5088931;28;20239;-77
2021/12/14 08:46:34;;;;;;;20.57;18.27;;;;;;;1.09;90.58;93289.56;5091283;28;20200;-77
2021/12/14 08:49:03;;;;;;;20.70;18.53;;;;;;;0.85;88.75;93295.41;5089974;28;21044;-78
2021/12/14 08:51:40;;;;;;;20.70;18.60;;;;;;;1.42;88.96;93299.69;5090782;28;20226;-78
2021/12/14 08:54:15;;;;;;;21.83;19.83;;;;;;;1.61;86.26;93304.72;5069395;28;20221;-79
2021/12/14 08:56:48;;;;;;;21.97;19.87;;;;;;;1.55;85.81;93302.19;5070295;28;20177;-78
2021/12/14 08:59:14;;;;;;;22.00;19.80;;;;;;;1.13;87.29;93298.44;5068930;28;20213;-78
2021/12/14 09:01:43;;;;;;;21.60;19.40;;;;;;;1.29;86.81;93290.25;5067334;28;20212;-79
2021/12/14 09:04:13;;;;;;;22.83;20.73;;;;;;;1.79;86.02;93300.66;5088272;28;20222;-76
2021/12/14 09:06:42;;;;;;;20.87;18.97;;;;;;;1.28;87.10;93293.03;5086556;28;20224;-78
2021/12/14 09:09:15;;;;;;;23.77;21.40;;;;;;;1.45;85.50;93270.97;5064171;28;20229;-78
2021/12/14 09:11:46;;;;;;;21.67;19.47;;;;;;;1.40;86.18;93275.97;5066113;28;20181;-77
2021/12/14 09:14:14;;;;;;;22.33;20.33;;;;;;;1.96;85.10;93291.44;5069170;28;20244;-77
2021/12/14 09:17:02;;;;;;;22.67;20.57;;;;;;;1.81;84.20;93267.75;5068820;28;20196;-79
2021/12/14 09:19:42;;;;;;;21.50;19.40;;;;;;;1.31;86.53;93267.69;5089196;28;20276;-79
2021/12/14 09:22:45;;;;;;;22.53;20.17;;;;;;;1.16;87.45;93256.91;5087943;28;20239;-78
2021/12/14 09:25:26;;;;;;;19.23;17.47;;;;;;;0.02;84.21;93061.81;5086536;28;20525;-79
2021/12/14 09:28:02;;;;;;;19.63;17.97;;;;;;;0.03;85.41;93058.28;5081135;28;20224;-78
2021/12/14 09:30:33;;;;;;;20.73;18.93;;;;;;;1.26;85.50;93248.75;5089428;28;20204;-77
2021/12/14 09:32:59;;;;;;;19.80;17.80;;;;;;;1.77;84.54;93275.13;5089853;28;20220;-79
2021/12/14 09:35:27;;;;;;;23.93;20.83;;;;;;;1.89;85.17;93244.34;5089072;28;20223;-78
2021/12/14 09:37:56;;;;;;;23.73;21.33;;;;;;;2.13;84.78;93277.03;5087376;28;20221;-80
2021/12/14 09:40:29;;;;;;;24.30;21.70;;;;;;;1.94;84.20;93259.94;5090454;28;20184;-79
2021/12/14 09:42:56;;;;;;;21.30;19.20;;;;;;;2.14;82.91;93268.28;5087661;28;20254;-78
2021/12/14 09:45:25;;;;;;;19.03;17.10;;;;;;;1.90;83.63;93266.53;5087682;28;20303;-79
2021/12/14 09:47:52;;;;;;;20.17;18.17;;;;;;;1.75;83.10;93238.50;5088004;28;20252;-78
2021/12/14 09:50:29;;;;;;;21.33;19.40;;;;;;;2.00;82.95;93252.16;5090385;28;20185;-81
2021/12/14 09:52:56;;;;;;;22.47;20.07;;;;;;;1.98;83.79;93266.25;5090500;28;20224;-80
2021/12/14 09:55:25;;;;;;;20.80;18.70;;;;;;;1.97;82.91;93259.53;5090201;28;20185;-79
2021/12/14 09:57:58;;;;;;;19.57;16.77;;;;;;;1.81;83.17;93249.75;5121370;28;20290;-77
2021/12/14 10:00:27;;;;;;;22.27;20.13;;;;;;;2.30;82.29;93253.09;5089750;28;20222;-77
2021/12/14 10:02:56;;;;;;;21.00;18.90;;;;;;;1.98;83.23;93254.16;5088843;28;20857;-78
2021/12/14 10:05:31;;;;;;;24.10;21.50;;;;;;;2.32;81.98;93217.59;5090585;28;20211;-78
2021/12/14 10:07:58;;;;;;;20.57;18.70;;;;;;;2.42;81.86;93250.59;5090202;28;20244;-78
2021/12/14 10:10:25;;;;;;;22.83;20.07;;;;;;;2.50;80.11;93258.06;5090229;28;20196;-78
2021/12/14 10:12:55;;;;;;;22.97;20.77;;;;;;;1.94;82.87;93247.06;5089727;28;20246;-77
2021/12/14 10:15:23;;;;;;;22.93;20.53;;;;;;;1.94;84.30;93259.94;5087279;28;20228;-78
2021/12/14 10:17:50;;;;;;;24.63;22.13;;;;;;;2.32;81.99;93258.81;5089292;28;20682;-77
2021/12/14 10:20:21;;;;;;;22.93;20.77;;;;;;;2.31;82.70;93236.63;5089567;28;20328;-77
2021/12/14 10:22:51;;;;;;;20.50;18.40;;;;;;;2.13;81.08;93240.97;5088082;28;20228;-77
2021/12/14 10:25:20;;;;;;;20.13;18.23;;;;;;;2.52;80.43;93238.78;5088623;28;20181;-78
2021/12/14 10:27:46;;;;;;;23.87;21.40;;;;;;;1.91;83.89;93226.91;5080802;28;20234;-78
2021/12/14 10:30:24;;;;;;;23.93;20.37;;;;;;;2.45;83.01;93250.16;5069807;28;20213;-77
2021/12/14 10:32:50;;;;;;;31.00;23.40;;;;;;;2.37;82.59;93242.72;5068356;28;20236;-78
2021/12/14 10:35:22;;;;;;;27.83;23.17;;;;;;;2.73;81.20;93248.69;5068083;28;20231;-79
2021/12/14 10:38:08;;;;;;;27.00;24.17;;;;;;;2.43;82.14;93252.97;5069763;28;20225;-80
2021/12/14 10:43:22;;;;;;;28.67;24.83;;;;;;;2.71;81.89;93239.56;5068236;28;20224;-79
2021/12/14 10:45:56;;;;;;;30.20;25.20;;;;;;;2.03;85.10;93250.94;5068904;28;20197;-77
2021/12/14 10:48:26;;;;;;;35.53;27.70;;;;;;;2.12;85.37;93235.03;5081456;28;20239;-79
2021/12/14 10:50:54;;;;;;;32.63;27.03;;;;;;;2.39;83.26;93243.28;5089677;28;20195;-78
2021/12/14 10:53:20;;;;;;;32.43;25.67;;;;;;;2.33;83.51;93219.19;5088976;28;20225;-77
2021/12/14 10:55:51;;;;;;;37.57;27.33;;;;;;;2.30;82.88;93226.53;5120010;28;20283;-78
2021/12/14 10:58:20;;;;;;;29.97;24.60;;;;;;;2.24;83.72;93237.69;5089039;28;20240;-78
2021/12/14 11:00:51;;;;;;;28.73;25.57;;;;;;;1.90;85.92;93235.63;5088411;28;20192;-78
2021/12/14 11:03:22;;;;;;;29.37;24.57;;;;;;;2.34;86.31;93237.97;5075372;28;20235;-77
2021/12/14 11:05:52;;;;;;;30.37;25.50;;;;;;;1.99;84.43;93218.91;5069301;28;20193;-76
2021/12/14 11:11:18;;;;;;;34.43;26.67;;;;;;;1.94;86.70;93229.06;5057794;28;20208;-76
2021/12/14 11:13:55;;;;;;;37.00;27.27;;;;;;;2.33;84.07;93215.81;5066859;28;21320;-78
2021/12/14 11:19:40;;;;;;;36.43;30.00;;;;;;;2.05;86.19;93190.53;5069044;28;20308;-78
2021/12/14 11:22:18;;;;;;;51.83;37.70;;;;;;;2.40;84.43;93208.78;5068884;28;20224;-78
2021/12/14 11:24:48;;;;;;;176.27;100.63;;;;;;;2.43;84.14;93221.28;5086639;28;20196;-76
2021/12/14 11:27:19;;;;;;;32.70;26.13;;;;;;;2.21;84.56;93227.81;5088244;28;20228;-76
2021/12/14 11:29:45;;;;;;;29.70;24.17;;;;;;;1.58;86.60;93209.94;5088139;28;20197;-77
2021/12/14 11:32:23;;;;;;;31.80;25.80;;;;;;;1.78;86.28;93216.69;5087798;28;21703;-77
2021/12/14 11:34:49;;;;;;;32.33;26.73;;;;;;;1.59;87.31;93210.72;5089008;28;20683;-83
2021/12/14 11:37:21;;;;;;;27.20;24.27;;;;;;;1.88;86.62;93222.19;5088670;28;20232;-82
2021/12/14 11:39:51;;;;;;;26.47;23.57;;;;;;;1.84;87.12;93219.22;5092014;28;20185;-85
2021/12/14 11:42:19;;;;;;;36.37;28.57;;;;;;;1.95;85.89;93217.75;5092861;28;21215;-84
2021/12/14 11:44:57;;;;;;;30.40;26.53;;;;;;;2.09;85.26;93220.00;5092463;28;20219;-84
2021/12/14 11:50:06;;;;;;;32.60;26.27;;;;;;;1.95;85.73;93212.59;5092380;28;20268;-80
2021/12/14 11:53:02;;;;;;;35.93;29.70;;;;;;;2.17;85.35;93221.50;5091635;28;20235;-83
2021/12/14 11:55:54;;;;;;;28.43;23.93;;;;;;;1.77;86.24;93212.56;5092639;28;20212;-79
2021/12/14 11:58:30;;;;;;;28.80;25.03;;;;;;;1.72;86.23;93196.97;5091635;28;20263;-81
2021/12/14 12:01:05;;;;;;;32.03;27.67;;;;;;;2.00;85.21;93205.81;5092657;28;20292;-80
2021/12/14 12:03:35;;;;;;;27.77;24.47;;;;;;;1.57;86.99;93200.63;5122267;28;20228;-81
2021/12/14 12:06:33;;;;;;;30.00;26.17;;;;;;;1.51;86.34;93157.75;5091814;28;20211;-77
2021/12/14 12:11:50;;;;;;;30.97;25.83;;;;;;;1.73;86.38;93214.75;5072789;28;20220;-75
2021/12/14 12:14:25;;;;;;;30.40;25.17;;;;;;;1.39;88.14;93186.91;5070647;28;20221;-77
2021/12/14 12:16:53;;;;;;;31.00;24.83;;;;;;;1.81;86.74;93211.13;5072469;28;20226;-77
2021/12/14 12:19:28;;;;;;;26.70;22.37;;;;;;;1.70;86.17;93188.69;5081963;28;20177;-79
2021/12/14 12:21:55;;;;;;;25.60;22.93;;;;;;;1.46;86.36;93177.38;5113348;28;20192;-79